Time;durP1;ratioP1;P1;durP2;ratioP2;P2;SDS_P1;SDS_P2;PMS_P1;PMS_P2;Temp;Humidity;BMP_temperature;BMP_pressure;BME280_temperature;BME280_humidity;BME280_pressure;Samples;Min_cycle;Max_cycle;Signal;HPM_P1;HPM_P2
2022/10/06 00:01:14;;;;;;;15.25;14.45;;;;;;;;;;10164362;28;20419;-71
2022/10/06 00:06:12;;;;;;;15.70;14.77;;;;;;;;;;10160068;28;20051;-70
2022/10/06 00:11:08;;;;;;;15.40;14.48;;;;;;;;;;10169416;28;20066;-69
2022/10/06 00:16:09;;;;;;;13.45;12.75;;;;;;;;;;10166050;28;20532;-70
2022/10/06 00:21:05;;;;;;;14.13;13.13;;;;;;;;;;10152754;28;20054;-71
2022/10/06 00:26:02;;;;;;;11.80;11.00;;;;;;;;;;10160540;28;20050;-70
2022/10/06 00:31:00;;;;;;;12.07;11.32;;;;;;;;;;10169029;28;20834;-69
2022/10/06 00:35:57;;;;;;;12.20;11.45;;;;;;;;;;10166177;28;20069;-70
2022/10/06 00:40:53;;;;;;;11.23;10.52;;;;;;;;;;10159076;28;20541;-71
2022/10/06 00:45:50;;;;;;;12.63;11.70;;;;;;;;;;10154616;28;20042;-72
2022/10/06 00:50:46;;;;;;;11.32;10.63;;;;;;;;;;10156016;28;20046;-72
2022/10/06 00:55:43;;;;;;;11.20;10.48;;;;;;;;;;10157305;28;20525;-71
2022/10/06 01:00:40;;;;;;;11.40;10.70;;;;;;;;;;10156326;28;20052;-71
2022/10/06 01:05:42;;;;;;;11.60;10.90;;;;;;;;;;10156737;28;20615;-70
2022/10/06 01:10:38;;;;;;;11.25;10.55;;;;;;;;;;10151331;28;20081;-68
2022/10/06 01:15:38;;;;;;;11.77;11.07;;;;;;;;;;10156452;28;20061;-69
2022/10/06 01:20:35;;;;;;;12.15;11.35;;;;;;;;;;10167663;28;20046;-70
2022/10/06 01:25:33;;;;;;;11.27;10.65;;;;;;;;;;10151334;28;20042;-71
2022/10/06 01:30:36;;;;;;;13.20;12.40;;;;;;;;;;10161342;28;20042;-70
2022/10/06 01:35:32;;;;;;;13.70;12.80;;;;;;;;;;10146601;28;20052;-70
2022/10/06 01:40:29;;;;;;;13.52;12.55;;;;;;;;;;10151400;28;20592;-70
2022/10/06 01:45:25;;;;;;;14.13;13.13;;;;;;;;;;10152212;28;20050;-70
2022/10/06 01:50:21;;;;;;;14.85;13.95;;;;;;;;;;10147288;28;20054;-69
2022/10/06 01:55:18;;;;;;;14.85;14.00;;;;;;;;;;10149854;28;20507;-72
2022/10/06 02:00:14;;;;;;;16.92;15.60;;;;;;;;;;10141298;28;20042;-70
2022/10/06 02:05:11;;;;;;;15.70;14.73;;;;;;;;;;10148862;28;20050;-70
2022/10/06 02:10:07;;;;;;;15.27;14.15;;;;;;;;;;10153510;28;20050;-70
2022/10/06 02:15:05;;;;;;;15.32;14.38;;;;;;;;;;10160140;28;20054;-71
2022/10/06 02:20:01;;;;;;;16.60;15.25;;;;;;;;;;10150775;28;20048;-72
2022/10/06 02:24:57;;;;;;;15.20;14.25;;;;;;;;;;10149367;28;20541;-73
2022/10/06 02:29:54;;;;;;;15.60;14.60;;;;;;;;;;10152581;28;20046;-70
2022/10/06 02:34:51;;;;;;;16.00;14.68;;;;;;;;;;10148568;28;20058;-67
2022/10/06 02:39:47;;;;;;;15.38;14.38;;;;;;;;;;10153466;28;20057;-68
2022/10/06 02:44:43;;;;;;;15.13;13.98;;;;;;;;;;10151746;28;20095;-67
2022/10/06 02:49:39;;;;;;;14.95;13.95;;;;;;;;;;10151930;28;20046;-67
2022/10/06 02:54:35;;;;;;;15.80;14.77;;;;;;;;;;10149633;28;20042;-67
2022/10/06 02:59:32;;;;;;;15.23;14.20;;;;;;;;;;10150594;28;20046;-67
2022/10/06 03:04:29;;;;;;;17.10;15.70;;;;;;;;;;10152397;28;20552;-68
2022/10/06 03:09:25;;;;;;;16.90;15.57;;;;;;;;;;10156262;28;20050;-67
2022/10/06 03:14:21;;;;;;;16.60;15.07;;;;;;;;;;10159886;28;20054;-67
2022/10/06 03:19:18;;;;;;;17.83;16.60;;;;;;;;;;10153238;28;20050;-66
2022/10/06 03:24:14;;;;;;;17.75;16.33;;;;;;;;;;10152201;28;20056;-67
2022/10/06 03:29:10;;;;;;;17.55;16.10;;;;;;;;;;10152227;28;20054;-68
2022/10/06 03:34:07;;;;;;;16.90;15.27;;;;;;;;;;10142582;28;20047;-67
2022/10/06 03:39:04;;;;;;;16.83;15.35;;;;;;;;;;10151532;28;20048;-67
2022/10/06 03:44:00;;;;;;;16.98;15.57;;;;;;;;;;10159157;28;20562;-68
2022/10/06 03:48:57;;;;;;;15.90;14.80;;;;;;;;;;10156522;28;20049;-67
2022/10/06 03:53:54;;;;;;;16.42;15.13;;;;;;;;;;10145641;28;20046;-68
2022/10/06 03:58:51;;;;;;;17.80;15.32;;;;;;;;;;10148284;28;20038;-67
2022/10/06 04:03:48;;;;;;;15.75;13.65;;;;;;;;;;10150711;28;20565;-67
2022/10/06 04:08:45;;;;;;;15.68;13.98;;;;;;;;;;10152538;28;20042;-67
2022/10/06 04:13:42;;;;;;;14.75;13.43;;;;;;;;;;10166727;28;20042;-68
2022/10/06 04:18:39;;;;;;;16.15;14.82;;;;;;;;;;10176305;28;20041;-68
2022/10/06 04:23:35;;;;;;;17.50;14.90;;;;;;;;;;10174750;28;20050;-67
2022/10/06 04:28:31;;;;;;;15.80;14.23;;;;;;;;;;10151277;28;20139;-68
2022/10/06 04:33:33;;;;;;;16.45;15.00;;;;;;;;;;10156985;28;20504;-66
2022/10/06 04:38:33;;;;;;;16.90;15.43;;;;;;;;;;10158473;28;20515;-67
2022/10/06 04:43:29;;;;;;;16.42;14.75;;;;;;;;;;10148784;28;20080;-67
2022/10/06 04:48:26;;;;;;;20.10;17.85;;;;;;;;;;10144052;28;20504;-67
2022/10/06 04:53:23;;;;;;;19.58;17.88;;;;;;;;;;10151057;28;20054;-66
2022/10/06 04:58:19;;;;;;;20.42;18.50;;;;;;;;;;10142749;28;20053;-67
2022/10/06 05:03:15;;;;;;;20.48;18.75;;;;;;;;;;10137282;28;20059;-65
2022/10/06 05:08:12;;;;;;;19.75;18.25;;;;;;;;;;10128772;28;20890;-66
2022/10/06 05:13:10;;;;;;;20.33;18.60;;;;;;;;;;10130573;28;20056;-65
2022/10/06 05:18:06;;;;;;;18.83;17.52;;;;;;;;;;10135118;28;20054;-67
2022/10/06 05:23:05;;;;;;;19.30;17.48;;;;;;;;;;10134981;28;20050;-66
2022/10/06 05:28:01;;;;;;;19.45;17.55;;;;;;;;;;10146345;28;20512;-67
2022/10/06 05:32:57;;;;;;;18.90;17.10;;;;;;;;;;10151269;28;20057;-67
2022/10/06 05:37:54;;;;;;;20.80;16.30;;;;;;;;;;10155404;28;20046;-67
2022/10/06 05:42:53;;;;;;;18.70;16.98;;;;;;;;;;10154394;28;20057;-67
2022/10/06 05:47:49;;;;;;;18.15;16.67;;;;;;;;;;10159021;28;20535;-67
2022/10/06 05:52:46;;;;;;;17.08;15.63;;;;;;;;;;10163021;28;20042;-66
2022/10/06 05:57:42;;;;;;;17.70;16.17;;;;;;;;;;10151265;28;20054;-67
2022/10/06 06:02:38;;;;;;;17.58;15.88;;;;;;;;;;10151461;28;20087;-67
2022/10/06 06:07:35;;;;;;;18.55;16.88;;;;;;;;;;10147379;28;20459;-67
2022/10/06 06:12:31;;;;;;;19.02;17.33;;;;;;;;;;10158050;28;20050;-67
2022/10/06 06:17:30;;;;;;;23.52;18.05;;;;;;;;;;10160995;28;20733;-66
2022/10/06 06:22:27;;;;;;;18.73;17.02;;;;;;;;;;10144602;28;20046;-67
2022/10/06 06:27:23;;;;;;;17.13;15.63;;;;;;;;;;10157382;28;20061;-67
2022/10/06 06:32:19;;;;;;;17.55;16.02;;;;;;;;;;10157456;28;20061;-67
2022/10/06 06:37:16;;;;;;;17.80;15.80;;;;;;;;;;10151474;28;20077;-67
2022/10/06 06:42:12;;;;;;;17.10;15.07;;;;;;;;;;10159028;28;20513;-67
2022/10/06 06:47:09;;;;;;;16.27;14.55;;;;;;;;;;10153770;28;20053;-66
2022/10/06 06:52:05;;;;;;;16.15;14.68;;;;;;;;;;10158942;28;20061;-66
2022/10/06 06:57:01;;;;;;;20.35;14.93;;;;;;;;;;10161621;28;20056;-67
2022/10/06 07:01:57;;;;;;;16.75;15.13;;;;;;;;;;10165657;28;20463;-67
2022/10/06 07:06:57;;;;;;;14.80;13.45;;;;;;;;;;10154270;28;20480;-66
2022/10/06 07:11:56;;;;;;;20.48;13.38;;;;;;;;;;10155475;28;20125;-67
2022/10/06 07:27:23;;;;;;;14.65;13.10;;;;;;;;;;10147682;28;20061;-67
2022/10/06 07:32:20;;;;;;;17.38;13.25;;;;;;;;;;10135941;28;20054;-66
2022/10/06 07:37:16;;;;;;;15.95;11.70;;;;;;;;;;10146405;28;20051;-67
2022/10/06 07:42:14;;;;;;;16.70;12.45;;;;;;;;;;10146806;28;20046;-67
2022/10/06 07:47:10;;;;;;;17.67;12.52;;;;;;;;;;10148581;28;20056;-66
2022/10/06 07:52:06;;;;;;;20.05;13.07;;;;;;;;;;10171704;28;20045;-66
2022/10/06 07:57:02;;;;;;;13.88;12.27;;;;;;;;;;10166096;28;20054;-66
2022/10/06 08:01:59;;;;;;;11.95;10.75;;;;;;;;;;10163035;28;20050;-66
2022/10/06 08:06:57;;;;;;;29.05;12.23;;;;;;;;;;10171183;28;20460;-67
2022/10/06 08:11:53;;;;;;;12.68;11.02;;;;;;;;;;10157070;28;20042;-67
2022/10/06 08:16:51;;;;;;;18.13;11.88;;;;;;;;;;10162235;28;20054;-67
2022/10/06 08:21:47;;;;;;;16.25;10.90;;;;;;;;;;10159429;28;20504;-67
2022/10/06 08:26:43;;;;;;;12.38;10.60;;;;;;;;;;10163606;28;20042;-67
2022/10/06 08:31:39;;;;;;;13.60;11.15;;;;;;;;;;10154736;28;20042;-66
2022/10/06 08:36:36;;;;;;;14.27;10.57;;;;;;;;;;10158057;28;20096;-67
2022/10/06 08:41:39;;;;;;;13.70;10.02;;;;;;;;;;10170284;28;20034;-67
2022/10/06 08:46:41;;;;;;;17.02;11.05;;;;;;;;;;10162187;28;20042;-67
2022/10/06 08:52:04;;;;;;;18.77;10.27;;;;;;;;;;10170801;28;20043;-67
2022/10/06 08:57:12;;;;;;;13.90;10.27;;;;;;;;;;10141176;28;20042;-67
2022/10/06 09:02:16;;;;;;;12.82;10.00;;;;;;;;;;10160777;28;20047;-67
2022/10/06 09:07:14;;;;;;;15.20;9.98;;;;;;;;;;10158997;28;20038;-67
2022/10/06 09:12:16;;;;;;;10.15;8.98;;;;;;;;;;10141157;28;20062;-67
2022/10/06 09:17:19;;;;;;;11.13;9.55;;;;;;;;;;10129695;28;20042;-67
2022/10/06 09:22:17;;;;;;;15.40;8.45;;;;;;;;;;10129715;28;20057;-67
2022/10/06 09:27:17;;;;;;;12.80;9.43;;;;;;;;;;10126761;28;20487;-67
2022/10/06 09:32:14;;;;;;;13.25;9.15;;;;;;;;;;10131481;28;20432;-67
2022/10/06 09:37:12;;;;;;;12.55;8.80;;;;;;;;;;10131951;28;20047;-66
2022/10/06 09:42:08;;;;;;;14.98;9.05;;;;;;;;;;10141774;28;20049;-67
2022/10/06 09:47:21;;;;;;;17.10;9.88;;;;;;;;;;10149275;28;20523;-67
2022/10/06 09:52:17;;;;;;;14.27;7.90;;;;;;;;;;10153469;28;20392;-67
2022/10/06 09:57:16;;;;;;;18.50;8.73;;;;;;;;;;10153678;28;20053;-67
2022/10/06 10:02:25;;;;;;;11.80;8.18;;;;;;;;;;10163751;28;20049;-67
2022/10/06 10:07:23;;;;;;;11.77;8.55;;;;;;;;;;10157117;28;20523;-67
2022/10/06 10:12:23;;;;;;;9.48;7.45;;;;;;;;;;10150701;28;20073;-68
2022/10/06 10:17:31;;;;;;;12.65;8.15;;;;;;;;;;10151243;28;20230;-67
2022/10/06 10:22:35;;;;;;;13.43;8.30;;;;;;;;;;10151348;28;20508;-67
2022/10/06 10:27:38;;;;;;;10.75;7.25;;;;;;;;;;10148926;28;20543;-67
2022/10/06 10:32:40;;;;;;;12.93;8.10;;;;;;;;;;10150107;28;20163;-68
2022/10/06 10:37:42;;;;;;;12.30;8.73;;;;;;;;;;10151921;28;20049;-68
2022/10/06 10:42:46;;;;;;;16.25;9.27;;;;;;;;;;10152933;28;20046;-67
2022/10/06 10:47:44;;;;;;;10.48;8.27;;;;;;;;;;10142359;28;20065;-68
2022/10/06 10:52:41;;;;;;;13.95;8.65;;;;;;;;;;10145590;28;20089;-67
2022/10/06 10:57:39;;;;;;;9.05;8.15;;;;;;;;;;10145958;28;20042;-67
2022/10/06 11:02:38;;;;;;;11.13;8.07;;;;;;;;;;10147354;28;20487;-67
2022/10/06 11:07:47;;;;;;;13.70;7.90;;;;;;;;;;10143440;28;20037;-67
2022/10/06 11:13:03;;;;;;;13.63;7.97;;;;;;;;;;10149557;28;20448;-67
2022/10/06 11:18:07;;;;;;;16.80;8.52;;;;;;;;;;10166695;28;20038;-66
2022/10/06 11:23:17;;;;;;;16.65;7.70;;;;;;;;;;10150356;28;20503;-67
2022/10/06 11:28:16;;;;;;;9.05;7.22;;;;;;;;;;10169318;28;20132;-67
2022/10/06 11:33:33;;;;;;;11.60;7.03;;;;;;;;;;10167817;28;20057;-67
2022/10/06 11:38:41;;;;;;;11.02;7.22;;;;;;;;;;10171641;28;20492;-67
2022/10/06 11:43:40;;;;;;;11.82;7.70;;;;;;;;;;10154719;28;20056;-67
2022/10/06 11:48:37;;;;;;;13.60;8.20;;;;;;;;;;10156605;28;20166;-67
2022/10/06 11:53:33;;;;;;;16.05;8.68;;;;;;;;;;10161865;28;20038;-67
2022/10/06 11:58:50;;;;;;;8.93;6.82;;;;;;;;;;10160199;28;20046;-67
2022/10/06 12:03:47;;;;;;;11.80;7.82;;;;;;;;;;10157263;28;20150;-67
2022/10/06 12:08:44;;;;;;;8.00;7.07;;;;;;;;;;10149679;28;20595;-67
2022/10/06 12:13:47;;;;;;;11.82;8.55;;;;;;;;;;10141137;28;20682;-70
2022/10/06 12:19:06;;;;;;;11.55;7.72;;;;;;;;;;10148618;28;20072;-67
2022/10/06 12:24:18;;;;;;;11.45;7.05;;;;;;;;;;10159685;28;20054;-67
2022/10/06 12:29:38;;;;;;;9.63;6.73;;;;;;;;;;10155280;28;20132;-67
2022/10/06 12:34:42;;;;;;;10.75;7.38;;;;;;;;;;10160558;28;20424;-67
2022/10/06 12:39:38;;;;;;;7.60;6.50;;;;;;;;;;10143815;28;20053;-70
2022/10/06 12:44:39;;;;;;;7.97;6.13;;;;;;;;;;10134504;28;21437;-70
2022/10/06 12:49:44;;;;;;;9.98;7.05;;;;;;;;;;10142338;28;20161;-69
2022/10/06 12:54:56;;;;;;;12.45;6.95;;;;;;;;;;10131408;28;20142;-70
2022/10/06 12:59:53;;;;;;;10.10;6.20;;;;;;;;;;10133827;28;20456;-70
2022/10/06 13:05:12;;;;;;;10.30;6.90;;;;;;;;;;10131938;28;20804;-70
2022/10/06 13:10:15;;;;;;;9.88;6.70;;;;;;;;;;10131379;28;20542;-69
2022/10/06 13:15:16;;;;;;;7.30;6.07;;;;;;;;;;10132263;28;20058;-67
2022/10/06 13:20:31;;;;;;;9.20;6.10;;;;;;;;;;10135722;28;20046;-67
2022/10/06 13:25:39;;;;;;;9.30;6.70;;;;;;;;;;10128457;28;20519;-67
2022/10/06 13:30:35;;;;;;;8.30;6.68;;;;;;;;;;10128244;28;20069;-68
2022/10/06 13:35:34;;;;;;;9.13;6.35;;;;;;;;;;10129384;28;20188;-67
2022/10/06 13:40:32;;;;;;;10.63;5.97;;;;;;;;;;10128251;28;20050;-67
2022/10/06 13:45:41;;;;;;;7.78;6.30;;;;;;;;;;10127372;28;20042;-67
2022/10/06 13:50:43;;;;;;;9.38;6.78;;;;;;;;;;10133472;28;20409;-67
2022/10/06 13:55:47;;;;;;;9.48;6.38;;;;;;;;;;10147092;28;20085;-68
2022/10/06 14:00:49;;;;;;;9.27;7.15;;;;;;;;;;10146818;28;20167;-67
2022/10/06 14:05:45;;;;;;;10.25;7.13;;;;;;;;;;10151341;28;20054;-68
2022/10/06 14:11:08;;;;;;;9.35;6.53;;;;;;;;;;10151083;28;20056;-68
2022/10/06 14:16:09;;;;;;;8.65;5.80;;;;;;;;;;10145500;28;20046;-67
2022/10/06 14:21:23;;;;;;;8.32;5.82;;;;;;;;;;10145916;28;20105;-67
2022/10/06 14:26:24;;;;;;;10.55;6.28;;;;;;;;;;10154105;28;20057;-66
2022/10/06 14:31:21;;;;;;;10.25;7.40;;;;;;;;;;10150390;28;20043;-66
2022/10/06 14:36:22;;;;;;;7.57;6.30;;;;;;;;;;10149246;28;20137;-67
2022/10/06 14:41:23;;;;;;;8.63;5.88;;;;;;;;;;10140396;28;20050;-67
2022/10/06 14:46:20;;;;;;;7.65;6.00;;;;;;;;;;10150771;28;20117;-67
2022/10/06 14:51:17;;;;;;;8.85;6.22;;;;;;;;;;10146893;28;20049;-67
2022/10/06 14:56:14;;;;;;;11.57;6.80;;;;;;;;;;10145789;28;20066;-66
2022/10/06 15:01:11;;;;;;;8.82;6.97;;;;;;;;;;10141953;28;20045;-68
2022/10/06 15:11:25;;;;;;;9.80;6.47;;;;;;;;;;10138410;28;20053;-67
2022/10/06 15:16:23;;;;;;;10.70;6.50;;;;;;;;;;10142979;28;20046;-67
2022/10/06 15:21:20;;;;;;;7.43;6.22;;;;;;;;;;10150309;28;20046;-66
2022/10/06 15:31:35;;;;;;;9.05;7.18;;;;;;;;;;10128750;28;20109;-66
2022/10/06 15:36:32;;;;;;;8.40;6.18;;;;;;;;;;10123258;28;20232;-66
2022/10/06 15:41:29;;;;;;;10.20;6.22;;;;;;;;;;10121721;28;20045;-67
2022/10/06 15:46:33;;;;;;;8.65;6.25;;;;;;;;;;10122901;28;20062;-66
2022/10/06 15:51:31;;;;;;;11.23;6.80;;;;;;;;;;10125492;28;20069;-67
2022/10/06 15:56:30;;;;;;;8.55;6.20;;;;;;;;;;10126175;28;20823;-67
2022/10/06 16:01:32;;;;;;;6.40;5.63;;;;;;;;;;10148033;28;20042;-67
2022/10/06 16:06:41;;;;;;;8.50;6.05;;;;;;;;;;10144405;28;20051;-67
2022/10/06 16:11:38;;;;;;;6.88;5.70;;;;;;;;;;10132805;28;20431;-67
2022/10/06 16:16:35;;;;;;;12.15;7.13;;;;;;;;;;10144097;28;20051;-67
2022/10/06 16:21:38;;;;;;;7.25;6.35;;;;;;;;;;10142153;28;20043;-66
2022/10/06 16:26:34;;;;;;;8.93;6.25;;;;;;;;;;10135992;28;20169;-66
2022/10/06 16:31:31;;;;;;;8.25;6.60;;;;;;;;;;10144470;28;20038;-67
2022/10/06 16:36:28;;;;;;;9.30;6.72;;;;;;;;;;10141659;28;20030;-66
2022/10/06 16:41:25;;;;;;;7.10;6.22;;;;;;;;;;10162886;28;20045;-67
2022/10/06 16:46:22;;;;;;;10.05;6.40;;;;;;;;;;10147564;28;20058;-66
2022/10/06 16:51:22;;;;;;;11.90;7.43;;;;;;;;;;10142406;28;20599;-67
2022/10/06 16:56:20;;;;;;;9.20;6.50;;;;;;;;;;10128247;28;20500;-66
2022/10/06 17:01:17;;;;;;;9.50;6.93;;;;;;;;;;10127836;28;20038;-67
2022/10/06 17:06:15;;;;;;;8.00;6.65;;;;;;;;;;10133590;28;20468;-68
2022/10/06 17:11:13;;;;;;;9.25;6.65;;;;;;;;;;10128474;28;20038;-70
2022/10/06 17:16:12;;;;;;;10.30;7.03;;;;;;;;;;10123771;28;20547;-70
2022/10/06 17:21:09;;;;;;;9.63;7.28;;;;;;;;;;10135310;28;20046;-71
2022/10/06 17:26:29;;;;;;;9.68;7.30;;;;;;;;;;10127994;28;20101;-71
2022/10/06 17:31:31;;;;;;;9.90;7.90;;;;;;;;;;10138222;28;20121;-71
2022/10/06 17:36:27;;;;;;;9.88;7.38;;;;;;;;;;10140302;28;20042;-70
2022/10/06 17:41:30;;;;;;;10.70;8.07;;;;;;;;;;10129572;28;20045;-71
2022/10/06 17:46:27;;;;;;;10.75;7.70;;;;;;;;;;10137744;28;20053;-71
2022/10/06 17:51:27;;;;;;;11.55;7.47;;;;;;;;;;10138739;28;20093;-71
2022/10/06 17:56:24;;;;;;;11.00;7.53;;;;;;;;;;10145004;28;20500;-71
2022/10/06 18:01:22;;;;;;;11.77;7.47;;;;;;;;;;10142491;28;20050;-71
2022/10/06 18:06:19;;;;;;;13.20;8.70;;;;;;;;;;10130554;28;20058;-71
2022/10/06 18:16:55;;;;;;;12.05;7.60;;;;;;;;;;10074802;28;20260;-71
2022/10/06 18:21:55;;;;;;;10.88;7.65;;;;;;;;;;10139034;28;20046;-70
2022/10/06 18:26:52;;;;;;;14.38;7.15;;;;;;;;;;10141640;28;20052;-71
2022/10/06 18:31:50;;;;;;;8.10;6.70;;;;;;;;;;10135174;28;20052;-70
2022/10/06 18:36:47;;;;;;;9.85;6.15;;;;;;;;;;10122319;28;20560;-70
2022/10/06 18:41:45;;;;;;;8.55;6.65;;;;;;;;;;10138398;28;20421;-72
2022/10/06 18:51:56;;;;;;;8.63;6.78;;;;;;;;;;10136216;28;20081;-70
2022/10/06 18:56:54;;;;;;;10.02;6.45;;;;;;;;;;10132955;28;20390;-70
2022/10/06 19:01:50;;;;;;;8.35;6.78;;;;;;;;;;10141927;28;20038;-70
2022/10/06 19:06:49;;;;;;;9.20;6.60;;;;;;;;;;10138576;28;20483;-71
2022/10/06 19:11:52;;;;;;;10.25;6.60;;;;;;;;;;10137013;28;20533;-70
2022/10/06 19:16:50;;;;;;;9.57;6.82;;;;;;;;;;10135524;28;20049;-70
2022/10/06 19:21:48;;;;;;;7.65;6.40;;;;;;;;;;10140794;28;20043;-70
2022/10/06 19:26:45;;;;;;;12.00;6.53;;;;;;;;;;10133324;28;20045;-71
2022/10/06 19:31:43;;;;;;;7.55;6.32;;;;;;;;;;10139450;28;20056;-70
2022/10/06 19:36:40;;;;;;;12.00;6.63;;;;;;;;;;10142286;28;20044;-71
2022/10/06 19:46:54;;;;;;;12.75;7.65;;;;;;;;;;10150230;28;20050;-70
2022/10/06 19:51:50;;;;;;;10.27;6.43;;;;;;;;;;10157696;28;20050;-70
2022/10/06 19:56:47;;;;;;;7.38;6.32;;;;;;;;;;10145817;28;20403;-70
2022/10/06 20:01:43;;;;;;;7.57;6.82;;;;;;;;;;10145587;28;20452;-70
2022/10/06 20:06:41;;;;;;;14.35;6.80;;;;;;;;;;10148699;28;20042;-71
2022/10/06 20:11:38;;;;;;;10.25;7.40;;;;;;;;;;10139982;28;20057;-70
2022/10/06 20:16:35;;;;;;;9.15;6.68;;;;;;;;;;10132083;28;20061;-69
2022/10/06 20:21:34;;;;;;;10.57;7.53;;;;;;;;;;10131742;28;20054;-69
2022/10/06 20:26:31;;;;;;;10.38;7.15;;;;;;;;;;10140393;28;20050;-70
2022/10/06 20:31:29;;;;;;;16.25;8.13;;;;;;;;;;10154330;28;20442;-70
2022/10/06 20:36:26;;;;;;;12.52;8.23;;;;;;;;;;10151339;28;20042;-70
2022/10/06 20:41:22;;;;;;;11.40;7.75;;;;;;;;;;10141103;28;20527;-70
2022/10/06 20:46:20;;;;;;;15.55;10.38;;;;;;;;;;10151752;28;20340;-71
2022/10/06 20:51:17;;;;;;;9.95;9.05;;;;;;;;;;10160887;28;20054;-72
2022/10/06 20:56:14;;;;;;;12.73;8.90;;;;;;;;;;10149928;28;20057;-69
2022/10/06 21:01:12;;;;;;;9.77;7.88;;;;;;;;;;10151717;28;20057;-71
2022/10/06 21:06:08;;;;;;;12.10;7.88;;;;;;;;;;10149031;28;20164;-69
2022/10/06 21:11:04;;;;;;;8.18;7.32;;;;;;;;;;10142926;28;20377;-69
2022/10/06 21:16:01;;;;;;;13.45;8.02;;;;;;;;;;10159894;28;20046;-71
2022/10/06 21:20:59;;;;;;;9.10;7.13;;;;;;;;;;10162472;28;20042;-71
2022/10/06 21:25:59;;;;;;;10.93;7.45;;;;;;;;;;10161845;28;20046;-69
2022/10/06 21:30:59;;;;;;;11.25;7.00;;;;;;;;;;10164938;28;20038;-71
2022/10/06 21:35:59;;;;;;;12.32;7.18;;;;;;;;;;10162592;28;20049;-71
2022/10/06 21:41:27;;;;;;;8.75;6.60;;;;;;;;;;10146372;28;20050;-71
2022/10/06 21:46:21;;;;;;;9.50;7.30;;;;;;;;;;10154129;28;20554;-71
2022/10/06 21:51:24;;;;;;;13.02;7.18;;;;;;;;;;10152579;28;20137;-71
2022/10/06 21:56:21;;;;;;;11.77;6.53;;;;;;;;;;10142128;28;20045;-70
2022/10/06 22:01:18;;;;;;;11.15;6.75;;;;;;;;;;10140438;28;20524;-70
2022/10/06 22:06:15;;;;;;;10.90;6.32;;;;;;;;;;10142337;28;20096;-70
2022/10/06 22:11:14;;;;;;;9.70;6.53;;;;;;;;;;10142290;28;20055;-71
2022/10/06 22:16:12;;;;;;;11.07;6.80;;;;;;;;;;10139360;28;20189;-70
2022/10/06 22:21:19;;;;;;;11.55;7.30;;;;;;;;;;10146776;28;20506;-71
2022/10/06 22:26:15;;;;;;;9.45;6.50;;;;;;;;;;10142533;28;20054;-71
2022/10/06 22:31:12;;;;;;;9.90;7.05;;;;;;;;;;10151127;28;20424;-70
2022/10/06 22:36:12;;;;;;;11.00;6.50;;;;;;;;;;10147627;28;20054;-70
2022/10/06 22:41:09;;;;;;;10.35;6.72;;;;;;;;;;10146299;28;20061;-70
2022/10/06 22:46:06;;;;;;;8.82;6.65;;;;;;;;;;10140725;28;20535;-71
2022/10/06 22:51:03;;;;;;;12.30;6.63;;;;;;;;;;10153246;28;20046;-70
2022/10/06 22:55:59;;;;;;;10.18;5.93;;;;;;;;;;10146116;28;20447;-70
2022/10/06 23:00:56;;;;;;;8.60;6.10;;;;;;;;;;10140362;28;20050;-70
2022/10/06 23:05:56;;;;;;;10.98;6.53;;;;;;;;;;10145110;28;20570;-69
2022/10/06 23:10:52;;;;;;;7.72;6.72;;;;;;;;;;10141980;28;20046;-70
2022/10/06 23:15:49;;;;;;;11.70;7.35;;;;;;;;;;10143973;28;20043;-70
2022/10/06 23:20:45;;;;;;;8.68;6.40;;;;;;;;;;10147156;28;20101;-70
2022/10/06 23:25:44;;;;;;;10.02;6.70;;;;;;;;;;10142106;28;20435;-70
2022/10/06 23:30:41;;;;;;;13.10;7.05;;;;;;;;;;10148324;28;20699;-70
2022/10/06 23:35:37;;;;;;;9.70;7.20;;;;;;;;;;10150323;28;20050;-69
2022/10/06 23:40:33;;;;;;;8.50;6.25;;;;;;;;;;10154215;28;20050;-70
2022/10/06 23:45:29;;;;;;;20.45;7.57;;;;;;;;;;10152625;28;20049;-70
2022/10/06 23:50:26;;;;;;;9.02;6.10;;;;;;;;;;10153689;28;20053;-70
2022/10/06 23:55:22;;;;;;;12.20;6.78;;;;;;;;;;10152204;28;20687;-70
